createdAt,value
2024-03-12T00:00:29.579Z,984.46
2024-03-12T00:01:29.487Z,984.41
2024-03-12T00:02:29.343Z,984.45
2024-03-12T00:03:29.298Z,984.46
2024-03-12T00:04:29.223Z,984.47
2024-03-12T00:05:29.295Z,984.49
2024-03-12T00:06:29.090Z,984.49
2024-03-12T00:07:28.915Z,984.53
2024-03-12T00:08:28.839Z,984.53
2024-03-12T00:09:28.773Z,984.54
2024-03-12T00:10:28.664Z,984.55
2024-03-12T00:11:28.656Z,984.55
2024-03-12T00:12:28.545Z,984.56
2024-03-12T00:13:28.405Z,984.54
2024-03-12T00:14:28.321Z,984.55
2024-03-12T00:15:28.272Z,984.54
2024-03-12T00:16:29.336Z,984.56
2024-03-12T00:17:28.141Z,984.53
2024-03-12T00:18:27.997Z,984.58
2024-03-12T00:19:27.894Z,984.56
2024-03-12T00:20:27.865Z,984.53
2024-03-12T00:21:27.773Z,984.53
2024-03-12T00:22:27.639Z,984.55
2024-03-12T00:23:27.549Z,984.57
2024-03-12T00:24:27.510Z,984.59
2024-03-12T00:25:27.384Z,984.59
2024-03-12T00:26:27.310Z,984.54
2024-03-12T00:27:27.234Z,984.58
2024-03-12T00:28:27.124Z,984.55
2024-03-12T00:29:27.041Z,984.54
2024-03-12T00:30:26.989Z,984.55
2024-03-12T00:31:27.218Z,984.62
2024-03-12T00:32:26.840Z,984.62
2024-03-12T00:33:26.720Z,984.57
2024-03-12T00:34:26.668Z,984.64
2024-03-12T00:35:26.527Z,984.67
2024-03-12T00:36:26.532Z,984.65
2024-03-12T00:37:26.359Z,984.68
2024-03-12T00:38:26.272Z,984.72
2024-03-12T00:39:26.224Z,984.73
2024-03-12T00:40:26.099Z,984.74
2024-03-12T00:41:26.016Z,984.73
2024-03-12T00:42:25.942Z,984.77
2024-03-12T00:43:25.847Z,984.78
2024-03-12T00:44:25.795Z,984.79
2024-03-12T00:45:25.692Z,984.77
2024-03-12T00:46:25.846Z,984.74
2024-03-12T00:47:25.540Z,984.80
2024-03-12T00:48:25.434Z,984.81
2024-03-12T00:49:25.326Z,984.78
2024-03-12T00:50:25.238Z,984.85
2024-03-12T00:51:25.176Z,984.81
2024-03-12T00:52:25.156Z,984.84
2024-03-12T00:53:24.986Z,984.84
2024-03-12T00:54:24.937Z,984.85
2024-03-12T00:55:24.986Z,984.85
2024-03-12T00:56:24.725Z,984.81
2024-03-12T00:57:24.697Z,984.88
2024-03-12T00:58:24.636Z,984.82
2024-03-12T00:59:24.478Z,984.85
2024-03-12T01:00:24.457Z,984.81
2024-03-12T01:01:24.438Z,984.90
2024-03-12T01:02:24.214Z,984.88
2024-03-12T01:03:24.165Z,984.91
2024-03-12T01:04:24.243Z,984.87
2024-03-12T01:05:23.958Z,984.85
2024-03-12T01:06:24.938Z,984.85
2024-03-12T01:07:23.789Z,984.83
2024-03-12T01:09:23.701Z,984.84
2024-03-12T01:10:23.559Z,984.85
2024-03-12T01:11:23.477Z,984.88
2024-03-12T01:12:23.440Z,984.90
2024-03-12T01:13:23.273Z,984.92
2024-03-12T01:14:23.190Z,984.93
2024-03-12T01:15:23.157Z,984.91
2024-03-12T01:16:23.017Z,984.95
2024-03-12T01:17:22.930Z,984.94
2024-03-12T01:18:22.887Z,984.89
2024-03-12T01:19:23.903Z,984.92
2024-03-12T01:20:23.020Z,984.88
2024-03-12T01:21:22.706Z,984.95
2024-03-12T01:22:22.539Z,984.95
2024-03-12T01:23:22.463Z,984.96
2024-03-12T01:25:22.521Z,984.95
2024-03-12T01:26:22.161Z,984.99
2024-03-12T01:27:22.110Z,985.08
2024-03-12T01:28:22.142Z,985.01
2024-03-12T01:29:21.908Z,985.00
2024-03-12T01:30:22.341Z,985.02
2024-03-12T01:31:21.748Z,984.96
2024-03-12T01:32:21.649Z,984.98
2024-03-12T01:33:21.619Z,985.05
2024-03-12T01:34:21.485Z,985.06
2024-03-12T01:35:22.379Z,985.02
2024-03-12T01:37:21.983Z,985.01
2024-03-12T01:41:21.803Z,985.02
2024-03-12T01:42:21.036Z,985.07
2024-03-12T01:43:20.762Z,985.09
2024-03-12T01:44:20.661Z,985.04
2024-03-12T01:46:20.461Z,985.09
2024-03-12T01:47:20.372Z,985.15
2024-03-12T01:48:20.286Z,985.11
2024-03-12T01:49:20.199Z,985.06
2024-03-12T01:50:20.121Z,985.06
2024-03-12T01:51:20.036Z,985.03
2024-03-12T01:52:19.952Z,985.13
2024-03-12T01:53:19.861Z,985.14
2024-03-12T01:54:19.775Z,985.16
2024-03-12T01:55:20.168Z,985.10
2024-03-12T01:56:19.606Z,985.08
2024-03-12T01:57:19.698Z,985.11
2024-03-12T01:58:19.445Z,985.12
2024-03-12T01:59:19.353Z,985.15
2024-03-12T02:00:19.268Z,985.05
2024-03-12T02:01:19.258Z,985.11
2024-03-12T02:02:19.096Z,985.06
2024-03-12T02:03:19.009Z,985.05
2024-03-12T02:04:18.927Z,985.07
2024-03-12T02:05:18.867Z,985.05
2024-03-12T02:08:18.832Z,985.02
2024-03-12T02:09:18.506Z,985.02
2024-03-12T02:10:18.417Z,985.02
2024-03-12T02:11:18.363Z,985.02
2024-03-12T02:12:18.248Z,985.01
2024-03-12T02:13:18.243Z,985.05
2024-03-12T02:14:18.077Z,985.06
2024-03-12T02:15:18.000Z,985.05
2024-03-12T02:16:18.454Z,985.07
2024-03-12T02:17:17.827Z,985.02
2024-03-12T02:18:17.773Z,985.02
2024-03-12T02:19:17.656Z,985.06
2024-03-12T02:20:17.573Z,985.03
2024-03-12T02:21:17.486Z,985.05
2024-03-12T02:22:17.404Z,985.03
2024-03-12T02:23:17.324Z,985.03
2024-03-12T02:24:17.240Z,985.12
2024-03-12T02:25:17.160Z,985.09
2024-03-12T02:26:17.066Z,985.12
2024-03-12T02:27:16.991Z,985.10
2024-03-12T02:28:16.928Z,985.11
2024-03-12T02:29:17.097Z,985.18
2024-03-12T02:30:16.787Z,985.15
2024-03-12T02:31:17.089Z,985.14
2024-03-12T02:32:16.657Z,985.18
2024-03-12T02:33:16.529Z,985.22
2024-03-12T02:34:16.389Z,985.21
2024-03-12T02:35:16.310Z,985.23
2024-03-12T02:36:16.230Z,985.16
2024-03-12T02:37:16.149Z,985.19
2024-03-12T02:38:16.050Z,985.25
2024-03-12T02:39:15.993Z,985.24
2024-03-12T02:40:17.046Z,985.23
2024-03-12T02:41:15.797Z,985.24
2024-03-12T02:42:15.720Z,985.23
2024-03-12T02:43:15.665Z,985.24
2024-03-12T02:44:15.542Z,985.23
2024-03-12T02:45:16.579Z,985.32
2024-03-12T02:47:15.489Z,985.34
2024-03-12T02:48:15.246Z,985.35
2024-03-12T02:49:15.319Z,985.35
2024-03-12T02:50:15.027Z,985.37
2024-03-12T02:52:14.902Z,985.40
2024-03-12T02:53:14.776Z,985.36
2024-03-12T02:54:14.895Z,985.38
2024-03-12T02:55:15.299Z,985.40
2024-03-12T02:56:14.735Z,985.39
2024-03-12T02:57:14.846Z,985.39
2024-03-12T02:59:14.487Z,985.44
2024-03-12T03:00:15.706Z,985.43
2024-03-12T03:01:14.203Z,985.46
2024-03-12T03:02:14.011Z,985.39
2024-03-12T03:03:13.930Z,985.41
2024-03-12T03:04:13.873Z,985.46
2024-03-12T03:05:13.829Z,985.44
2024-03-12T03:08:44.448Z,985.52
2024-03-12T03:09:44.298Z,985.49
2024-03-12T03:10:44.142Z,985.52
2024-03-12T03:11:44.053Z,985.52
2024-03-12T03:12:43.985Z,985.54
2024-03-12T03:13:43.889Z,985.55
2024-03-12T03:14:43.839Z,985.52
2024-03-12T03:15:43.730Z,985.59
2024-03-12T03:16:43.666Z,985.56
2024-03-12T03:17:44.134Z,985.49
2024-03-12T03:18:43.458Z,985.53
2024-03-12T03:19:43.368Z,985.50
2024-03-12T03:20:43.283Z,985.51
2024-03-12T03:21:43.312Z,985.50
2024-03-12T03:22:43.118Z,985.49
2024-03-12T03:23:43.025Z,985.53
2024-03-12T03:24:43.062Z,985.52
2024-03-12T03:25:42.923Z,985.50
2024-03-12T03:26:42.925Z,985.53
2024-03-12T03:28:35.197Z,985.53
2024-03-12T03:29:35.097Z,985.50
2024-03-12T03:30:35.055Z,985.52
2024-03-12T03:31:34.922Z,985.57
2024-03-12T03:32:34.903Z,985.53
2024-03-12T03:33:34.761Z,985.50
2024-03-12T03:34:34.731Z,985.56
2024-03-12T03:35:34.630Z,985.55
2024-03-12T03:36:34.596Z,985.53
2024-03-12T03:37:34.408Z,985.58
2024-03-12T03:38:34.328Z,985.60
2024-03-12T03:39:34.270Z,985.55
2024-03-12T03:40:34.156Z,985.59
2024-03-12T03:41:34.079Z,985.66
2024-03-12T03:42:34.053Z,985.61
2024-03-12T03:43:33.910Z,985.64
2024-03-12T03:44:33.824Z,985.59
2024-03-12T03:45:33.761Z,985.65
2024-03-12T03:46:33.651Z,985.72
2024-03-12T03:47:33.587Z,985.66
2024-03-12T03:48:33.543Z,985.69
2024-03-12T03:49:33.399Z,985.65
2024-03-12T03:50:33.311Z,985.69
2024-03-12T03:51:33.254Z,985.69
2024-03-12T03:52:33.158Z,985.70
2024-03-12T03:53:33.067Z,985.69
2024-03-12T03:54:33.035Z,985.70
2024-03-12T03:55:32.888Z,985.75
2024-03-12T03:56:32.808Z,985.72
2024-03-12T03:57:32.752Z,985.77
2024-03-12T03:58:32.835Z,985.69
2024-03-12T04:01:00.123Z,985.74
2024-03-12T04:02:00.032Z,985.77
2024-03-12T04:02:59.888Z,985.81
2024-03-12T04:03:59.901Z,985.78
2024-03-12T04:04:59.717Z,985.75
2024-03-12T04:05:59.631Z,985.78
2024-03-12T04:06:59.573Z,985.84
2024-03-12T04:07:59.462Z,985.78
2024-03-12T04:08:59.418Z,985.82
2024-03-12T04:09:59.328Z,985.82
2024-03-12T04:10:59.275Z,985.89
2024-03-12T04:11:59.143Z,985.85
2024-03-12T04:12:59.121Z,985.91
2024-03-12T04:13:58.953Z,985.92
2024-03-12T04:14:58.869Z,985.95
2024-03-12T04:15:58.804Z,986.02
2024-03-12T04:16:58.699Z,986.01
2024-03-12T04:17:58.683Z,986.02
2024-03-12T04:18:58.574Z,986.02
2024-03-12T04:19:58.501Z,986.05
2024-03-12T04:20:58.361Z,986.06
2024-03-12T04:21:58.321Z,986.04
2024-03-12T04:22:58.189Z,986.10
2024-03-12T04:23:58.108Z,986.13
2024-03-12T04:24:58.066Z,986.09
2024-03-12T04:25:57.948Z,986.15
2024-03-12T04:26:57.855Z,986.11
2024-03-12T04:27:57.803Z,986.12
2024-03-12T04:28:57.706Z,986.13
2024-03-12T04:32:23.225Z,986.19
2024-03-12T04:33:23.189Z,986.22
2024-03-12T04:36:48.750Z,986.30
2024-03-12T04:37:48.602Z,986.35
2024-03-12T04:38:48.511Z,986.31
2024-03-12T04:39:48.521Z,986.30
2024-03-12T04:40:48.343Z,986.34
2024-03-12T04:41:48.502Z,986.33
2024-03-12T04:42:48.189Z,986.38
2024-03-12T04:43:48.080Z,986.34
2024-03-12T04:44:47.998Z,986.34
2024-03-12T04:45:47.949Z,986.37
2024-03-12T04:46:48.192Z,986.39
2024-03-12T04:47:50.059Z,986.40
2024-03-12T04:48:47.943Z,986.39
2024-03-12T04:49:47.579Z,986.43
2024-03-12T04:50:47.492Z,986.44
2024-03-12T04:51:47.449Z,986.45
2024-03-12T04:52:47.363Z,986.42
2024-03-12T04:53:47.237Z,986.44
2024-03-12T04:54:47.187Z,986.46
2024-03-12T04:55:47.090Z,986.42
2024-03-12T04:56:46.999Z,986.44
2024-03-12T04:57:46.966Z,986.44
2024-03-12T04:58:46.815Z,986.42
2024-03-12T04:59:46.727Z,986.50
2024-03-12T05:00:46.892Z,986.52
2024-03-12T05:01:46.648Z,986.52
2024-03-12T05:02:46.622Z,986.52
2024-03-12T05:03:46.452Z,986.56
2024-03-12T05:04:46.351Z,986.50
2024-03-12T05:05:46.228Z,986.51
2024-03-12T05:11:04.990Z,986.58
2024-03-12T05:12:04.834Z,986.58
2024-03-12T05:13:05.133Z,986.65
2024-03-12T05:14:04.659Z,986.62
2024-03-12T05:15:04.571Z,986.67
2024-03-12T05:16:04.511Z,986.70
2024-03-12T05:17:04.408Z,986.70
2024-03-12T05:18:04.360Z,986.76
2024-03-12T05:19:04.354Z,986.76
2024-03-12T05:20:04.147Z,986.78
2024-03-12T05:21:04.083Z,986.77
2024-03-12T05:22:04.209Z,986.82
2024-03-12T05:23:03.892Z,986.80
2024-03-12T05:24:03.824Z,986.85
2024-03-12T05:25:03.825Z,986.84
2024-03-12T05:26:03.660Z,986.83
2024-03-12T05:27:04.836Z,986.84
2024-03-12T05:28:03.819Z,986.85
2024-03-12T05:29:03.389Z,986.86
2024-03-12T05:30:03.362Z,986.88
2024-03-12T05:31:03.313Z,986.89
2024-03-12T05:32:03.136Z,986.92
2024-03-12T05:33:03.108Z,986.87
2024-03-12T05:34:03.085Z,986.87
2024-03-12T05:35:02.883Z,986.87
2024-03-12T05:36:02.800Z,986.91
2024-03-12T05:37:03.499Z,986.90
2024-03-12T05:38:45.119Z,986.89
2024-03-12T05:39:45.195Z,986.87
2024-03-12T05:40:48.580Z,986.90
2024-03-12T05:41:44.864Z,986.91
2024-03-12T05:42:44.846Z,986.91
2024-03-12T05:43:45.675Z,986.93
2024-03-12T05:44:44.602Z,986.91
2024-03-12T05:45:44.604Z,986.96
2024-03-12T05:46:44.706Z,986.99
2024-03-12T05:47:44.467Z,986.97
2024-03-12T05:48:44.415Z,986.99
2024-03-12T05:49:44.209Z,986.99
2024-03-12T05:50:44.108Z,987.00
2024-03-12T05:51:44.027Z,987.00
2024-03-12T05:52:43.925Z,987.01
2024-03-12T05:53:43.856Z,986.97
2024-03-12T05:54:43.795Z,987.04
2024-03-12T05:55:43.674Z,987.08
2024-03-12T05:56:43.595Z,987.04
2024-03-12T05:57:43.530Z,986.98
2024-03-12T05:58:43.462Z,987.03
2024-03-12T05:59:43.343Z,987.05
2024-03-12T06:00:43.346Z,987.07
2024-03-12T06:01:43.324Z,987.09
2024-03-12T06:02:43.351Z,987.13
2024-03-12T06:03:43.053Z,987.16
2024-03-12T06:04:42.927Z,987.19
2024-03-12T06:05:42.832Z,987.16
2024-03-12T06:06:42.762Z,987.24
2024-03-12T06:07:42.683Z,987.24
2024-03-12T06:08:42.572Z,987.22
2024-03-12T06:09:42.513Z,987.28
2024-03-12T06:10:42.417Z,987.25
2024-03-12T06:11:42.364Z,987.26
2024-03-12T06:12:42.262Z,987.26
2024-03-12T06:13:42.156Z,987.35
2024-03-12T06:14:42.108Z,987.36
2024-03-12T06:15:42.230Z,987.36
2024-03-12T06:16:41.902Z,987.38
2024-03-12T06:17:41.840Z,987.38
2024-03-12T06:18:41.830Z,987.41
2024-03-12T06:19:41.646Z,987.40
2024-03-12T06:20:41.561Z,987.41
2024-03-12T06:21:41.500Z,987.40
2024-03-12T06:22:41.391Z,987.40
2024-03-12T06:23:41.347Z,987.41
2024-03-12T06:24:41.353Z,987.38
2024-03-12T06:25:41.142Z,987.41
2024-03-12T06:26:41.070Z,987.45
2024-03-12T06:27:41.005Z,987.43
2024-03-12T06:28:40.886Z,987.48
2024-03-12T06:29:40.803Z,987.54
2024-03-12T06:30:40.799Z,987.53
2024-03-12T06:31:40.641Z,987.52
2024-03-12T06:32:40.596Z,987.52
2024-03-12T06:33:40.490Z,987.52
2024-03-12T06:34:40.379Z,987.51
2024-03-12T06:35:40.293Z,987.48
2024-03-12T06:36:40.270Z,987.57
2024-03-12T06:37:40.127Z,987.60
2024-03-12T06:38:40.129Z,987.58
2024-03-12T06:39:40.047Z,987.56
2024-03-12T06:40:39.867Z,987.65
2024-03-12T06:41:39.808Z,987.60
2024-03-12T06:42:39.722Z,987.64
2024-03-12T06:43:39.618Z,987.63
2024-03-12T06:44:39.531Z,987.69
2024-03-12T06:45:39.450Z,987.64
2024-03-12T06:46:39.460Z,987.68
2024-03-12T06:47:39.471Z,987.64
2024-03-12T06:48:39.221Z,987.70
2024-03-12T06:49:39.110Z,987.74
2024-03-12T06:50:39.018Z,987.73
2024-03-12T06:51:39.009Z,987.76
2024-03-12T06:52:38.853Z,987.77
2024-03-12T06:53:38.770Z,987.76
2024-03-12T06:54:38.695Z,987.80
2024-03-12T06:55:38.602Z,987.79
2024-03-12T06:56:38.513Z,987.81
2024-03-12T06:57:38.445Z,987.79
2024-03-12T06:58:38.360Z,987.85
2024-03-12T06:59:38.269Z,987.86
2024-03-12T07:00:39.015Z,987.83
2024-03-12T07:01:38.106Z,987.86
2024-03-12T07:02:38.084Z,987.86
2024-03-12T07:03:37.944Z,987.90
2024-03-12T07:04:37.842Z,987.90
2024-03-12T07:05:37.864Z,987.93
2024-03-12T07:06:37.731Z,987.89
2024-03-12T07:07:37.584Z,987.96
2024-03-12T07:08:37.500Z,987.92
2024-03-12T07:09:37.430Z,987.93
2024-03-12T07:10:37.337Z,987.96
2024-03-12T07:11:37.247Z,987.92
2024-03-12T07:12:37.202Z,987.94
2024-03-12T07:13:37.084Z,987.93
2024-03-12T07:32:51.076Z,988.07
2024-03-12T07:33:50.849Z,988.09
2024-03-12T07:34:50.767Z,988.11
2024-03-12T07:35:50.666Z,988.07
2024-03-12T07:36:50.702Z,988.11
2024-03-12T07:37:50.503Z,988.10
2024-03-12T07:38:50.424Z,988.12
2024-03-12T07:39:50.581Z,988.13
2024-03-12T07:40:50.256Z,988.11
2024-03-12T07:41:50.166Z,988.13
2024-03-12T07:42:50.104Z,988.11
2024-03-12T07:43:49.992Z,988.12
2024-03-12T07:44:49.908Z,988.11
2024-03-12T07:45:49.861Z,988.09
2024-03-12T07:46:49.744Z,988.11
2024-03-12T07:47:49.755Z,988.08
2024-03-12T07:48:49.705Z,988.13
2024-03-12T07:49:49.486Z,988.16
2024-03-12T07:50:49.413Z,988.18
2024-03-12T07:51:49.353Z,988.19
2024-03-12T07:52:49.272Z,988.23
2024-03-12T07:53:49.205Z,988.20
2024-03-12T07:54:49.121Z,988.24
2024-03-12T07:55:48.996Z,988.23
2024-03-12T07:56:48.900Z,988.22
2024-03-12T07:57:48.849Z,988.21
2024-03-12T07:58:48.731Z,988.20
2024-03-12T07:59:48.649Z,988.30
2024-03-12T08:00:48.606Z,988.23
2024-03-12T08:01:48.487Z,988.20
2024-03-12T08:02:48.396Z,988.24
2024-03-12T08:03:48.334Z,988.24
2024-03-12T08:04:48.267Z,988.26
2024-03-12T08:05:48.148Z,988.27
2024-03-12T08:06:48.077Z,988.31
2024-03-12T08:07:47.978Z,988.23
2024-03-12T08:08:47.895Z,988.29
2024-03-12T08:09:47.877Z,988.32
2024-03-12T08:10:47.737Z,988.36
2024-03-12T08:11:47.644Z,988.43
2024-03-12T08:12:47.639Z,988.37
2024-03-12T08:13:47.476Z,988.36
2024-03-12T08:14:47.386Z,988.42
2024-03-12T08:15:47.322Z,988.38
2024-03-12T08:16:47.222Z,988.35
2024-03-12T08:17:48.317Z,988.43
2024-03-12T08:18:47.120Z,988.41
2024-03-12T08:19:46.987Z,988.41
2024-03-12T08:20:47.270Z,988.41
2024-03-12T08:21:46.831Z,988.43
2024-03-12T08:22:46.737Z,988.45
2024-03-12T08:23:46.639Z,988.41
2024-03-12T08:24:46.595Z,988.43
2024-03-12T08:25:55.595Z,988.42
2024-03-12T08:26:46.387Z,988.40
2024-03-12T08:27:46.345Z,988.37
2024-03-12T08:28:46.221Z,988.38
2024-03-12T08:29:46.139Z,988.37
2024-03-12T08:30:46.112Z,988.41
2024-03-12T08:31:51.711Z,988.43
2024-03-12T08:32:46.345Z,988.41
2024-03-12T08:34:28.455Z,988.40
2024-03-12T08:35:28.208Z,988.40
2024-03-12T08:36:28.240Z,988.44
2024-03-12T08:37:28.034Z,988.41
2024-03-12T08:39:25.483Z,988.47
2024-03-12T08:40:25.522Z,988.49
2024-03-12T08:41:25.325Z,988.46
2024-03-12T08:42:25.237Z,988.45
2024-03-12T08:43:26.138Z,988.45
2024-03-12T08:44:25.400Z,988.48
2024-03-12T08:45:25.302Z,988.51
2024-03-12T08:46:24.897Z,988.52
2024-03-12T08:47:24.851Z,988.48
2024-03-12T08:48:24.746Z,988.52
2024-03-12T08:49:24.726Z,988.53
2024-03-12T08:50:24.634Z,988.58
2024-03-12T08:51:24.482Z,988.56
2024-03-12T08:52:24.523Z,988.57
2024-03-12T08:53:24.318Z,988.62
2024-03-12T08:54:24.246Z,988.56
2024-03-12T08:55:24.178Z,988.58
2024-03-12T08:56:24.070Z,988.66
2024-03-12T08:57:23.987Z,988.60
2024-03-12T08:58:23.926Z,988.58
2024-03-12T08:59:23.824Z,988.62
2024-03-12T09:00:23.736Z,988.64
2024-03-12T09:01:23.711Z,988.62
2024-03-12T09:02:23.575Z,988.64
2024-03-12T09:03:23.760Z,988.67
2024-03-12T09:04:23.418Z,988.68
2024-03-12T09:05:23.320Z,988.65
2024-03-12T09:06:23.250Z,988.65
2024-03-12T09:07:23.287Z,988.74
2024-03-12T09:08:23.118Z,988.71
2024-03-12T09:09:23.263Z,988.72
2024-03-12T09:10:23.023Z,988.75
2024-03-12T09:11:22.893Z,988.74
2024-03-12T09:12:22.738Z,988.74
2024-03-12T09:13:22.659Z,988.75
2024-03-12T09:14:22.580Z,988.77
2024-03-12T09:15:25.163Z,988.76
2024-03-12T09:16:22.491Z,988.72
2024-03-12T09:17:22.324Z,988.76
2024-03-12T09:18:25.969Z,988.76
2024-03-12T09:19:22.188Z,988.79
2024-03-12T09:20:22.079Z,988.79
2024-03-12T09:21:21.993Z,988.81
2024-03-12T09:22:21.933Z,988.81
2024-03-12T09:23:21.864Z,988.81
2024-03-12T09:25:21.733Z,988.84
2024-03-12T09:26:21.581Z,988.84
2024-03-12T09:27:21.502Z,988.83
2024-03-12T09:28:21.476Z,988.83
2024-03-12T09:29:21.329Z,988.82
2024-03-12T09:30:21.268Z,988.85
2024-03-12T09:31:21.204Z,988.87
2024-03-12T09:32:21.242Z,988.87
2024-03-12T09:33:21.002Z,988.87
2024-03-12T09:34:20.946Z,988.87
2024-03-12T09:35:20.855Z,988.91
2024-03-12T09:36:20.757Z,988.93
2024-03-12T09:37:20.777Z,988.92
2024-03-12T09:38:20.594Z,988.93
2024-03-12T09:39:20.529Z,988.94
2024-03-12T09:40:20.488Z,988.95
2024-03-12T09:41:20.384Z,988.95
2024-03-12T09:42:20.254Z,988.94
2024-03-12T09:43:20.191Z,989.01
2024-03-12T09:44:20.089Z,988.94
2024-03-12T09:45:20.006Z,988.96
2024-03-12T09:46:19.988Z,988.95
2024-03-12T09:47:19.842Z,988.94
2024-03-12T09:48:19.761Z,988.96
2024-03-12T09:49:19.714Z,988.96
2024-03-12T09:50:19.600Z,988.99
2024-03-12T09:51:19.509Z,988.98
2024-03-12T09:52:19.454Z,988.95
2024-03-12T09:53:19.359Z,988.98
2024-03-12T09:54:19.268Z,989.00
2024-03-12T09:55:19.332Z,989.03
2024-03-12T09:56:19.441Z,988.98
2024-03-12T09:57:19.152Z,989.07
2024-03-12T09:58:18.989Z,989.07
2024-03-12T09:59:18.851Z,989.02
2024-03-12T10:00:18.767Z,989.07
2024-03-12T10:01:18.718Z,989.07
2024-03-12T10:02:18.664Z,989.12
2024-03-12T10:03:18.516Z,989.08
2024-03-12T10:04:18.459Z,989.15
2024-03-12T10:05:18.352Z,989.12
2024-03-12T10:06:18.273Z,989.13
2024-03-12T10:07:18.299Z,989.15
2024-03-12T10:08:18.390Z,989.16
2024-03-12T10:09:18.026Z,989.17
2024-03-12T10:10:18.105Z,989.20
2024-03-12T10:11:17.882Z,989.25
2024-03-12T10:12:17.774Z,989.27
2024-03-12T10:13:18.312Z,989.25
2024-03-12T10:14:17.606Z,989.32
2024-03-12T10:15:17.518Z,989.30
2024-03-12T10:16:18.018Z,989.33
2024-03-12T10:17:17.354Z,989.33
2024-03-12T10:18:17.420Z,989.37
2024-03-12T10:19:17.313Z,989.34
2024-03-12T10:20:17.500Z,989.39
2024-03-12T10:21:17.019Z,989.35
2024-03-12T10:22:16.978Z,989.33
2024-03-12T10:23:17.104Z,989.34
2024-03-12T10:24:16.898Z,989.36
2024-03-12T10:25:16.791Z,989.38
2024-03-12T10:26:16.606Z,989.34
2024-03-12T10:27:16.532Z,989.40
2024-03-12T10:28:16.501Z,989.37
2024-03-12T10:29:16.400Z,989.42
2024-03-12T10:30:16.272Z,989.42
2024-03-12T10:31:16.633Z,989.40
2024-03-12T10:32:16.106Z,989.41
2024-03-12T10:33:16.071Z,989.40
2024-03-12T10:34:15.999Z,989.43
2024-03-12T10:35:15.856Z,989.40
2024-03-12T10:36:15.785Z,989.34
2024-03-12T10:37:15.759Z,989.34
2024-03-12T10:38:15.638Z,989.36
2024-03-12T10:39:15.525Z,989.37
2024-03-12T10:40:15.505Z,989.39
2024-03-12T10:41:15.378Z,989.35
2024-03-12T10:42:15.283Z,989.34
2024-03-12T10:43:15.421Z,989.36
2024-03-12T10:44:15.147Z,989.37
2024-03-12T10:45:15.171Z,989.36
2024-03-12T10:46:15.005Z,989.37
2024-03-12T10:47:14.863Z,989.39
2024-03-12T10:48:14.811Z,989.39
2024-03-12T10:49:14.965Z,989.43
2024-03-12T10:50:14.610Z,989.44
2024-03-12T10:51:14.996Z,989.45
2024-03-12T10:52:14.643Z,989.45
2024-03-12T10:53:14.381Z,989.45
2024-03-12T10:54:14.279Z,989.48
2024-03-12T10:55:14.373Z,989.43
2024-03-12T10:56:16.034Z,989.46
2024-03-12T10:57:14.037Z,989.47
2024-03-12T10:58:13.961Z,989.45
2024-03-12T10:59:13.877Z,989.45
2024-03-12T11:00:13.935Z,989.44
2024-03-12T11:01:13.911Z,989.45
2024-03-12T11:02:13.694Z,989.45
2024-03-12T11:03:13.533Z,989.47
2024-03-12T11:04:13.545Z,989.46
2024-03-12T11:05:13.398Z,989.43
2024-03-12T11:06:13.296Z,989.47
2024-03-12T11:07:13.255Z,989.46
2024-03-12T11:08:13.122Z,989.43
2024-03-12T11:09:13.075Z,989.40
2024-03-12T11:10:13.057Z,989.43
2024-03-12T11:11:12.978Z,989.40
2024-03-12T11:12:12.790Z,989.40
2024-03-12T11:13:13.019Z,989.38
2024-03-12T11:14:12.624Z,989.39
2024-03-12T11:15:12.543Z,989.41
2024-03-12T11:16:12.707Z,989.40
2024-03-12T11:17:12.413Z,989.43
2024-03-12T11:18:12.335Z,989.40
2024-03-12T11:19:12.279Z,989.45
2024-03-12T11:20:12.134Z,989.44
2024-03-12T11:21:12.043Z,989.40
2024-03-12T11:22:12.198Z,989.42
2024-03-12T11:23:11.909Z,989.43
2024-03-12T11:24:11.798Z,989.44
2024-03-12T11:25:11.823Z,989.41
2024-03-12T11:26:11.630Z,989.45
2024-03-12T11:27:11.547Z,989.43
2024-03-12T11:28:11.488Z,989.43
2024-03-12T11:29:11.394Z,989.45
2024-03-12T11:30:11.414Z,989.43
2024-03-12T11:31:11.394Z,989.43
2024-03-12T11:32:12.672Z,989.39
2024-03-12T11:33:11.149Z,989.41
2024-03-12T11:34:11.066Z,989.42
2024-03-12T11:35:10.890Z,989.41
2024-03-12T11:36:10.894Z,989.42
2024-03-12T11:37:10.858Z,989.39
2024-03-12T11:38:12.604Z,989.43
2024-03-12T11:39:10.586Z,989.42
2024-03-12T11:40:10.627Z,989.42
2024-03-12T11:41:10.423Z,989.41
2024-03-12T11:42:10.318Z,989.43
2024-03-12T11:43:10.295Z,989.44
2024-03-12T11:44:12.501Z,989.44
2024-03-12T11:45:10.065Z,989.41
2024-03-12T11:46:10.224Z,989.42
2024-03-12T11:47:09.905Z,989.42
2024-03-12T11:48:09.859Z,989.40
2024-03-12T11:49:09.854Z,989.41
2024-03-12T11:50:09.863Z,989.42
2024-03-12T11:51:09.777Z,989.42
2024-03-12T11:52:09.578Z,989.46
2024-03-12T11:53:09.408Z,989.47
2024-03-12T11:54:09.334Z,989.47
2024-03-12T11:55:09.740Z,989.47
2024-03-12T11:56:10.359Z,989.50
2024-03-12T11:57:09.079Z,989.52
2024-03-12T11:58:09.072Z,989.50
2024-03-12T11:59:15.146Z,989.47
2024-03-12T12:00:08.838Z,989.51
2024-03-12T12:01:08.808Z,989.57
2024-03-12T12:02:08.757Z,989.55
2024-03-12T12:03:08.584Z,989.57
2024-03-12T12:04:08.708Z,989.56
2024-03-12T12:05:08.611Z,989.63
2024-03-12T12:06:08.535Z,989.57
2024-03-12T12:07:08.295Z,989.61
2024-03-12T12:08:08.177Z,989.66
2024-03-12T12:09:08.086Z,989.68
2024-03-12T12:10:08.025Z,989.68
2024-03-12T12:11:07.951Z,989.70
2024-03-12T12:12:07.942Z,989.69
2024-03-12T12:13:07.830Z,989.70
2024-03-12T12:14:07.731Z,989.74
2024-03-12T12:15:07.593Z,989.76
2024-03-12T12:16:07.564Z,989.76
2024-03-12T12:17:07.515Z,989.65
2024-03-12T12:18:07.587Z,989.69
2024-03-12T12:19:07.950Z,989.70
2024-03-12T12:20:07.187Z,989.58
2024-03-12T12:21:07.150Z,989.60
2024-03-12T12:22:07.018Z,989.60
2024-03-12T12:23:07.009Z,989.61
2024-03-12T12:24:06.859Z,989.61
2024-03-12T12:25:06.824Z,989.63
2024-03-12T12:26:06.692Z,989.65
2024-03-12T12:27:06.685Z,989.63
2024-03-12T12:28:06.632Z,989.60
2024-03-12T12:29:06.480Z,989.61
2024-03-12T12:30:06.386Z,989.58
2024-03-12T12:31:06.334Z,989.61
2024-03-12T12:32:06.209Z,989.60
2024-03-12T12:33:06.200Z,989.57
2024-03-12T12:34:06.083Z,989.59
2024-03-12T12:35:05.977Z,989.54
2024-03-12T12:36:05.878Z,989.54
2024-03-12T12:37:05.969Z,989.56
2024-03-12T12:38:05.725Z,989.55
2024-03-12T12:39:05.975Z,989.57
2024-03-12T12:40:05.578Z,989.58
2024-03-12T12:41:05.471Z,989.59
2024-03-12T12:42:05.397Z,989.61
2024-03-12T12:43:05.337Z,989.60
2024-03-12T12:44:05.229Z,989.62
2024-03-12T12:45:05.148Z,989.59
2024-03-12T12:46:05.136Z,989.64
2024-03-12T12:47:05.006Z,989.62
2024-03-12T12:48:04.921Z,989.63
2024-03-12T12:49:04.836Z,989.62
2024-03-12T12:50:04.743Z,989.59
2024-03-12T12:51:04.729Z,989.58
2024-03-12T12:52:04.613Z,989.59
2024-03-12T12:53:04.544Z,989.58
2024-03-12T12:54:04.415Z,989.57
2024-03-12T12:55:04.372Z,989.58
2024-03-12T12:56:04.260Z,989.59
2024-03-12T12:57:04.176Z,989.57
2024-03-12T12:58:04.178Z,989.57
2024-03-12T12:59:04.011Z,989.59
2024-03-12T13:00:03.928Z,989.57
2024-03-12T13:01:03.957Z,989.59
2024-03-12T13:02:04.006Z,989.60
2024-03-12T13:03:03.685Z,989.58
2024-03-12T13:04:03.638Z,989.57
2024-03-12T13:05:03.522Z,989.56
2024-03-12T13:06:03.439Z,989.55
2024-03-12T13:07:03.446Z,989.55
2024-03-12T13:08:03.277Z,989.59
2024-03-12T13:09:03.237Z,989.59
2024-03-12T13:10:03.204Z,989.63
2024-03-12T13:11:03.045Z,989.64
2024-03-12T13:12:03.313Z,989.64
2024-03-12T13:13:02.894Z,989.69
2024-03-12T13:14:02.790Z,989.68
2024-03-12T13:15:02.713Z,989.74